MTN7307 KMDT-KEWR
Flight info
| Callsign | MTN7307 |
|---|---|
| Flight time | 0h 47m |
| Altitude | 7000 |
| Route | LRP PTW KILMA |
| Aircraft | C208/L-SDFGR/C |
Departure
| Time | 2026-04-24 15:36 |
|---|---|
| Airport | Harrisburg International Airport (KMDT) |
Arrival
| Time | 2026-04-24 16:23 |
|---|---|
| Airport | Newark Liberty International Airport (KEWR) |
| Time | Latitude | Longitude | Altitude | Speed | Heading |
|---|---|---|---|---|---|
| 2026-04-24 15:23 | 40.19313 | -76.74881 | 311 ft | 0 kts | 127° |
| 2026-04-24 15:31 | 40.19221 | -76.75110 | 312 ft | 14 kts | 301° |
| 2026-04-24 15:32 | 40.19254 | -76.75775 | 317 ft | 22 kts | 300° |
| 2026-04-24 15:33 | 40.19616 | -76.76712 | 318 ft | 32 kts | 297° |
| 2026-04-24 15:33 | 40.19920 | -76.77350 | 318 ft | 21 kts | 285° |
| 2026-04-24 15:34 | 40.19789 | -76.77471 | 317 ft | 9 kts | 124° |
| 2026-04-24 15:35 | 40.19598 | -76.76956 | 320 ft | 72 kts | 116° |
| 2026-04-24 15:35 | 40.19030 | -76.75534 | 596 ft | 93 kts | 120° |
| 2026-04-24 15:35 | 40.18703 | -76.74776 | 801 ft | 97 kts | 118° |
| 2026-04-24 15:36 | 40.18359 | -76.73974 | 922 ft | 112 kts | 120° |
| 2026-04-24 15:36 | 40.17667 | -76.72140 | 1444 ft | 113 kts | 107° |
| 2026-04-24 15:36 | 40.17540 | -76.71160 | 1745 ft | 111 kts | 95° |
| 2026-04-24 15:37 | 40.17415 | -76.70135 | 2067 ft | 118 kts | 97° |
| 2026-04-24 15:37 | 40.17278 | -76.69055 | 2416 ft | 120 kts | 95° |
| 2026-04-24 15:37 | 40.17196 | -76.68378 | 2647 ft | 109 kts | 96° |
| 2026-04-24 15:37 | 40.17038 | -76.67136 | 2981 ft | 106 kts | 96° |
| 2026-04-24 15:38 | 40.16911 | -76.66196 | 3297 ft | 105 kts | 94° |
| 2026-04-24 15:38 | 40.16788 | -76.65247 | 3546 ft | 108 kts | 94° |
| 2026-04-24 15:38 | 40.16661 | -76.64273 | 3819 ft | 110 kts | 92° |
| 2026-04-24 15:38 | 40.16530 | -76.63242 | 3954 ft | 121 kts | 94° |
| 2026-04-24 15:39 | 40.16386 | -76.62146 | 4170 ft | 123 kts | 93° |
| 2026-04-24 15:39 | 40.16239 | -76.61030 | 4394 ft | 126 kts | 90° |
| 2026-04-24 15:39 | 40.16089 | -76.59894 | 4653 ft | 128 kts | 91° |
| 2026-04-24 15:39 | 40.15935 | -76.58736 | 4873 ft | 129 kts | 90° |
| 2026-04-24 15:40 | 40.15785 | -76.57574 | 5098 ft | 130 kts | 90° |
| 2026-04-24 15:40 | 40.15630 | -76.56402 | 5302 ft | 131 kts | 89° |
| 2026-04-24 15:40 | 40.15476 | -76.55222 | 5506 ft | 132 kts | 89° |
| 2026-04-24 15:40 | 40.15316 | -76.54040 | 5714 ft | 132 kts | 89° |
| 2026-04-24 15:41 | 40.15214 | -76.53259 | 5857 ft | 132 kts | 89° |
| 2026-04-24 15:41 | 40.15058 | -76.52073 | 6063 ft | 132 kts | 88° |
| 2026-04-24 15:41 | 40.14851 | -76.50493 | 6312 ft | 134 kts | 87° |
| 2026-04-24 15:41 | 40.14694 | -76.49287 | 6485 ft | 135 kts | 88° |
| 2026-04-24 15:42 | 40.14531 | -76.48078 | 6663 ft | 135 kts | 88° |
| 2026-04-24 15:42 | 40.14371 | -76.46870 | 6831 ft | 135 kts | 88° |
| 2026-04-24 15:42 | 40.14265 | -76.46069 | 6957 ft | 135 kts | 88° |
| 2026-04-24 15:42 | 40.14104 | -76.44807 | 7012 ft | 149 kts | 89° |
| 2026-04-24 15:43 | 40.13920 | -76.43409 | 7023 ft | 163 kts | 91° |
| 2026-04-24 15:43 | 40.13716 | -76.41903 | 7022 ft | 173 kts | 92° |
| 2026-04-24 15:43 | 40.13431 | -76.39788 | 7019 ft | 182 kts | 92° |
| 2026-04-24 15:43 | 40.13212 | -76.38142 | 7018 ft | 186 kts | 92° |
| 2026-04-24 15:44 | 40.12988 | -76.36452 | 7019 ft | 192 kts | 92° |
| 2026-04-24 15:44 | 40.12835 | -76.35308 | 7018 ft | 194 kts | 93° |
| 2026-04-24 15:44 | 40.12600 | -76.33561 | 7024 ft | 197 kts | 92° |
| 2026-04-24 15:44 | 40.12364 | -76.31793 | 7020 ft | 197 kts | 93° |
| 2026-04-24 15:45 | 40.12130 | -76.30030 | 7013 ft | 197 kts | 93° |
| 2026-04-24 15:45 | 40.12086 | -76.28295 | 7013 ft | 186 kts | 72° |
| 2026-04-24 15:45 | 40.12346 | -76.26664 | 7012 ft | 183 kts | 68° |
| 2026-04-24 15:45 | 40.12678 | -76.24484 | 7018 ft | 187 kts | 70° |
| 2026-04-24 15:46 | 40.12837 | -76.23350 | 7017 ft | 189 kts | 71° |
| 2026-04-24 15:46 | 40.13078 | -76.21664 | 7018 ft | 189 kts | 71° |
| 2026-04-24 15:46 | 40.13313 | -76.19988 | 7013 ft | 187 kts | 70° |
| 2026-04-24 15:46 | 40.13549 | -76.18328 | 7012 ft | 185 kts | 70° |
| 2026-04-24 15:47 | 40.13780 | -76.16708 | 7012 ft | 183 kts | 70° |
| 2026-04-24 15:47 | 40.14013 | -76.15077 | 7010 ft | 183 kts | 70° |
| 2026-04-24 15:47 | 40.14245 | -76.13447 | 7006 ft | 183 kts | 70° |
| 2026-04-24 15:47 | 40.14474 | -76.11816 | 7001 ft | 182 kts | 70° |
| 2026-04-24 15:48 | 40.14705 | -76.10191 | 7007 ft | 182 kts | 70° |
| 2026-04-24 15:48 | 40.14935 | -76.08567 | 7002 ft | 181 kts | 70° |
| 2026-04-24 15:48 | 40.15165 | -76.06945 | 7007 ft | 182 kts | 70° |
| 2026-04-24 15:48 | 40.15396 | -76.05315 | 7006 ft | 183 kts | 70° |
| 2026-04-24 15:49 | 40.15624 | -76.03680 | 7004 ft | 182 kts | 70° |
| 2026-04-24 15:49 | 40.15850 | -76.02067 | 7018 ft | 184 kts | 70° |
| 2026-04-24 15:49 | 40.16085 | -76.00410 | 7022 ft | 187 kts | 70° |
| 2026-04-24 15:49 | 40.16323 | -75.98731 | 7018 ft | 189 kts | 70° |
| 2026-04-24 15:50 | 40.16559 | -75.97032 | 7021 ft | 190 kts | 70° |
| 2026-04-24 15:50 | 40.16797 | -75.95337 | 7019 ft | 190 kts | 70° |
| 2026-04-24 15:50 | 40.17033 | -75.93650 | 7018 ft | 188 kts | 70° |
| 2026-04-24 15:50 | 40.17268 | -75.91972 | 7011 ft | 187 kts | 70° |
| 2026-04-24 15:51 | 40.17498 | -75.90321 | 7007 ft | 183 kts | 70° |
| 2026-04-24 15:51 | 40.17723 | -75.88707 | 7010 ft | 182 kts | 70° |
| 2026-04-24 15:51 | 40.17954 | -75.87067 | 7010 ft | 184 kts | 70° |
| 2026-04-24 15:51 | 40.18182 | -75.85415 | 7008 ft | 185 kts | 70° |
| 2026-04-24 15:52 | 40.18412 | -75.83765 | 7007 ft | 183 kts | 71° |
| 2026-04-24 15:52 | 40.18636 | -75.82136 | 7005 ft | 181 kts | 70° |
| 2026-04-24 15:52 | 40.18863 | -75.80520 | 7012 ft | 181 kts | 70° |
| 2026-04-24 15:52 | 40.19088 | -75.78905 | 7014 ft | 180 kts | 70° |
| 2026-04-24 15:53 | 40.19310 | -75.77296 | 7012 ft | 180 kts | 70° |
| 2026-04-24 15:53 | 40.19529 | -75.75714 | 7017 ft | 179 kts | 70° |
| 2026-04-24 15:53 | 40.19750 | -75.74113 | 7015 ft | 178 kts | 70° |
| 2026-04-24 15:53 | 40.19970 | -75.72520 | 7017 ft | 178 kts | 70° |
| 2026-04-24 15:54 | 40.20190 | -75.70928 | 7021 ft | 179 kts | 69° |
| 2026-04-24 15:54 | 40.20413 | -75.69321 | 7027 ft | 180 kts | 70° |
| 2026-04-24 15:54 | 40.20635 | -75.67706 | 7028 ft | 180 kts | 69° |
| 2026-04-24 15:54 | 40.20855 | -75.66092 | 7031 ft | 181 kts | 70° |
| 2026-04-24 15:55 | 40.21076 | -75.64471 | 7030 ft | 181 kts | 70° |
| 2026-04-24 15:55 | 40.21302 | -75.62851 | 7033 ft | 182 kts | 70° |
| 2026-04-24 15:55 | 40.21522 | -75.61243 | 7037 ft | 182 kts | 70° |
| 2026-04-24 15:55 | 40.21746 | -75.59606 | 7016 ft | 183 kts | 71° |
| 2026-04-24 15:56 | 40.21970 | -75.57972 | 7013 ft | 182 kts | 70° |
| 2026-04-24 15:56 | 40.22189 | -75.56345 | 7016 ft | 181 kts | 70° |
| 2026-04-24 15:56 | 40.22529 | -75.54788 | 7017 ft | 178 kts | 62° |
| 2026-04-24 15:56 | 40.22897 | -75.53240 | 7016 ft | 179 kts | 64° |
| 2026-04-24 15:57 | 40.23255 | -75.51674 | 7014 ft | 180 kts | 63° |
| 2026-04-24 15:57 | 40.23617 | -75.50108 | 7012 ft | 179 kts | 64° |
| 2026-04-24 15:57 | 40.23977 | -75.48557 | 7010 ft | 178 kts | 63° |
| 2026-04-24 15:57 | 40.24333 | -75.47031 | 7012 ft | 177 kts | 63° |
| 2026-04-24 15:58 | 40.24697 | -75.45484 | 7013 ft | 178 kts | 63° |
| 2026-04-24 15:58 | 40.25055 | -75.43932 | 7018 ft | 180 kts | 63° |
| 2026-04-24 15:58 | 40.25423 | -75.42362 | 7016 ft | 181 kts | 62° |
| 2026-04-24 15:58 | 40.25814 | -75.40809 | 7011 ft | 179 kts | 62° |
| 2026-04-24 15:59 | 40.26183 | -75.39261 | 7011 ft | 178 kts | 63° |
| 2026-04-24 15:59 | 40.26543 | -75.37708 | 7006 ft | 178 kts | 63° |
| 2026-04-24 15:59 | 40.26901 | -75.36156 | 7000 ft | 178 kts | 63° |
| 2026-04-24 15:59 | 40.27253 | -75.34630 | 7001 ft | 177 kts | 63° |
| 2026-04-24 16:00 | 40.27610 | -75.33086 | 7002 ft | 178 kts | 63° |
| 2026-04-24 16:00 | 40.27968 | -75.31528 | 7004 ft | 179 kts | 63° |
| 2026-04-24 16:00 | 40.28330 | -75.29971 | 7001 ft | 178 kts | 63° |
| 2026-04-24 16:00 | 40.28688 | -75.28421 | 7001 ft | 177 kts | 63° |
| 2026-04-24 16:01 | 40.29042 | -75.26875 | 7007 ft | 177 kts | 63° |
| 2026-04-24 16:01 | 40.29398 | -75.25334 | 7002 ft | 176 kts | 63° |
| 2026-04-24 16:01 | 40.29750 | -75.23803 | 6994 ft | 176 kts | 63° |
| 2026-04-24 16:01 | 40.30101 | -75.22273 | 6987 ft | 176 kts | 62° |
| 2026-04-24 16:02 | 40.30455 | -75.20737 | 6988 ft | 176 kts | 63° |
| 2026-04-24 16:02 | 40.30801 | -75.19223 | 6985 ft | 175 kts | 62° |
| 2026-04-24 16:02 | 40.31155 | -75.17694 | 6983 ft | 175 kts | 62° |
| 2026-04-24 16:02 | 40.31508 | -75.16157 | 6984 ft | 176 kts | 63° |
| 2026-04-24 16:03 | 40.31854 | -75.14627 | 6980 ft | 175 kts | 62° |
| 2026-04-24 16:03 | 40.32207 | -75.13094 | 6984 ft | 177 kts | 62° |
| 2026-04-24 16:03 | 40.32562 | -75.11549 | 6983 ft | 177 kts | 62° |
| 2026-04-24 16:03 | 40.32914 | -75.10000 | 6981 ft | 177 kts | 62° |
| 2026-04-24 16:04 | 40.33268 | -75.08455 | 6986 ft | 177 kts | 62° |
| 2026-04-24 16:04 | 40.33615 | -75.06933 | 6985 ft | 176 kts | 62° |
| 2026-04-24 16:04 | 40.33966 | -75.05399 | 6993 ft | 176 kts | 62° |
| 2026-04-24 16:04 | 40.34318 | -75.03856 | 6983 ft | 177 kts | 62° |
| 2026-04-24 16:05 | 40.35022 | -75.00776 | 6979 ft | 177 kts | 62° |
| 2026-04-24 16:05 | 40.35375 | -74.99226 | 6980 ft | 177 kts | 62° |
| 2026-04-24 16:06 | 40.36076 | -74.96128 | 6982 ft | 177 kts | 62° |
| 2026-04-24 16:06 | 40.36431 | -74.94576 | 6974 ft | 178 kts | 62° |
| 2026-04-24 16:06 | 40.37130 | -74.91487 | 6974 ft | 179 kts | 62° |
| 2026-04-24 16:07 | 40.37484 | -74.89923 | 6974 ft | 178 kts | 62° |
| 2026-04-24 16:07 | 40.37837 | -74.88368 | 6971 ft | 178 kts | 62° |
| 2026-04-24 16:07 | 40.38534 | -74.85287 | 6973 ft | 174 kts | 62° |
| 2026-04-24 16:08 | 40.38881 | -74.83760 | 6971 ft | 175 kts | 62° |
| 2026-04-24 16:08 | 40.39576 | -74.80680 | 6970 ft | 177 kts | 61° |
| 2026-04-24 16:09 | 40.40269 | -74.77594 | 6968 ft | 177 kts | 62° |
| 2026-04-24 16:09 | 40.40619 | -74.76045 | 6976 ft | 177 kts | 62° |
| 2026-04-24 16:09 | 40.40968 | -74.74492 | 6977 ft | 177 kts | 62° |
| 2026-04-24 16:09 | 40.41320 | -74.72936 | 6973 ft | 179 kts | 62° |
| 2026-04-24 16:10 | 40.42384 | -74.68196 | 6980 ft | 181 kts | 61° |
| 2026-04-24 16:11 | 40.43087 | -74.65067 | 6968 ft | 180 kts | 61° |
| 2026-04-24 16:11 | 40.43442 | -74.63489 | 6964 ft | 181 kts | 62° |
| 2026-04-24 16:11 | 40.43794 | -74.61906 | 6964 ft | 181 kts | 61° |
| 2026-04-24 16:12 | 40.44516 | -74.58688 | 6744 ft | 188 kts | 62° |
| 2026-04-24 16:12 | 40.44884 | -74.57033 | 6550 ft | 189 kts | 63° |
| 2026-04-24 16:12 | 40.45623 | -74.53710 | 6170 ft | 190 kts | 63° |
| 2026-04-24 16:13 | 40.45988 | -74.52072 | 5956 ft | 188 kts | 63° |
| 2026-04-24 16:13 | 40.46728 | -74.48759 | 5560 ft | 189 kts | 64° |
| 2026-04-24 16:14 | 40.47468 | -74.45430 | 5157 ft | 190 kts | 65° |
| 2026-04-24 16:14 | 40.47839 | -74.43766 | 4961 ft | 190 kts | 65° |
| 2026-04-24 16:14 | 40.48574 | -74.40436 | 4569 ft | 188 kts | 66° |
| 2026-04-24 16:15 | 40.48817 | -74.39346 | 4430 ft | 188 kts | 66° |
| 2026-04-24 16:15 | 40.49693 | -74.35562 | 3959 ft | 183 kts | 68° |
| 2026-04-24 16:16 | 40.50403 | -74.32449 | 3554 ft | 176 kts | 69° |
| 2026-04-24 16:16 | 40.50793 | -74.30941 | 3348 ft | 171 kts | 66° |
| 2026-04-24 16:17 | 40.52241 | -74.27227 | 2728 ft | 145 kts | 19° |
| 2026-04-24 16:17 | 40.54045 | -74.26130 | 2430 ft | 140 kts | 24° |
| 2026-04-24 16:18 | 40.55706 | -74.25079 | 2217 ft | 130 kts | 24° |
| 2026-04-24 16:18 | 40.57299 | -74.24074 | 2006 ft | 124 kts | 23° |
| 2026-04-24 16:18 | 40.58075 | -74.23580 | 1901 ft | 123 kts | 26° |
| 2026-04-24 16:19 | 40.59610 | -74.22609 | 1692 ft | 120 kts | 25° |
| 2026-04-24 16:19 | 40.60328 | -74.22154 | 1672 ft | 114 kts | 23° |
| 2026-04-24 16:20 | 40.61805 | -74.21213 | 1365 ft | 114 kts | 24° |
| 2026-04-24 16:20 | 40.63180 | -74.20336 | 1075 ft | 109 kts | 23° |
| 2026-04-24 16:20 | 40.63858 | -74.19901 | 907 ft | 108 kts | 25° |
| 2026-04-24 16:21 | 40.65172 | -74.19067 | 662 ft | 102 kts | 28° |
| 2026-04-24 16:21 | 40.65796 | -74.18675 | 481 ft | 91 kts | 31° |
| 2026-04-24 16:21 | 40.66345 | -74.18323 | 382 ft | 85 kts | 29° |
| 2026-04-24 16:22 | 40.66861 | -74.17999 | 272 ft | 75 kts | 31° |
| 2026-04-24 16:22 | 40.67813 | -74.17392 | 66 ft | 73 kts | 32° |
| 2026-04-24 16:22 | 40.68216 | -74.17136 | 18 ft | 54 kts | 27° |
| 2026-04-24 16:23 | 40.68467 | -74.16975 | 18 ft | 27 kts | 27° |
| 2026-04-24 16:23 | 40.68622 | -74.16877 | 18 ft | 22 kts | 24° |
| 2026-04-24 16:23 | 40.68729 | -74.16883 | 18 ft | 15 kts | 276° |
| 2026-04-24 16:24 | 40.68579 | -74.17123 | 20 ft | 20 kts | 207° |
| 2026-04-24 16:24 | 40.68445 | -74.17210 | 22 ft | 20 kts | 205° |
| 2026-04-24 16:24 | 40.68345 | -74.17274 | 20 ft | 17 kts | 205° |
| 2026-04-24 16:24 | 40.68208 | -74.17361 | 17 ft | 27 kts | 206° |
| 2026-04-24 16:25 | 40.68026 | -74.17475 | 14 ft | 31 kts | 204° |
| 2026-04-24 16:25 | 40.67832 | -74.17598 | 14 ft | 29 kts | 206° |
| 2026-04-24 16:25 | 40.67662 | -74.17707 | 17 ft | 27 kts | 206° |
| 2026-04-24 16:26 | 40.67521 | -74.17846 | 19 ft | 6 kts | 286° |
| 2026-04-24 16:26 | 40.67558 | -74.17951 | 19 ft | 17 kts | 297° |
| 2026-04-24 16:26 | 40.67559 | -74.18213 | 17 ft | 26 kts | 207° |
| 2026-04-24 16:27 | 40.67488 | -74.18316 | 17 ft | 7 kts | 334° |
| 2026-04-24 16:27 | 40.67495 | -74.18315 | 17 ft | 0 kts | 31° |